Time;durP1;ratioP1;P1;durP2;ratioP2;P2;SDS_P1;SDS_P2;PMS_P1;PMS_P2;Temp;Humidity;BMP_temperature;BMP_pressure;BME280_temperature;BME280_humidity;BME280_pressure;Samples;Min_cycle;Max_cycle;Signal;HPM_P1;HPM_P2
2021/06/15 00:02:15;;;;;;;8.35;3.70;;;;;;;;;;4897283;29;20032;-90
2021/06/15 00:04:40;;;;;;;4.35;3.80;;;;;;;;;;4897381;29;20068;-89
2021/06/15 00:07:06;;;;;;;6.03;3.70;;;;;;;;;;4896379;29;20036;-89
2021/06/15 00:09:31;;;;;;;5.43;3.92;;;;;;;;;;4898404;29;20024;-89
2021/06/15 00:11:57;;;;;;;7.10;3.90;;;;;;;;;;4897211;29;20395;-89
2021/06/15 00:14:22;;;;;;;5.68;3.80;;;;;;;;;;4896763;29;20428;-89
2021/06/15 00:16:47;;;;;;;6.53;3.70;;;;;;;;;;4897115;29;20035;-89
2021/06/15 00:19:13;;;;;;;6.03;4.18;;;;;;;;;;4897042;29;20095;-89
2021/06/15 00:21:38;;;;;;;5.47;4.18;;;;;;;;;;4898018;29;20490;-89
2021/06/15 00:24:04;;;;;;;4.65;3.78;;;;;;;;;;4897188;29;20039;-90
2021/06/15 00:26:30;;;;;;;7.22;3.85;;;;;;;;;;4896568;29;20020;-89
2021/06/15 00:28:55;;;;;;;5.88;3.80;;;;;;;;;;4897684;29;20024;-89
2021/06/15 00:31:24;;;;;;;6.97;3.70;;;;;;;;;;4898077;29;20505;-89
2021/06/15 00:33:51;;;;;;;6.50;3.83;;;;;;;;;;4896178;29;20112;-89
2021/06/15 00:36:16;;;;;;;6.63;3.70;;;;;;;;;;4897584;29;20036;-90
2021/06/15 00:38:42;;;;;;;6.05;3.72;;;;;;;;;;4897247;29;20032;-89
2021/06/15 00:41:07;;;;;;;7.38;4.10;;;;;;;;;;4881095;29;20025;-89
2021/06/15 00:43:33;;;;;;;9.18;4.05;;;;;;;;;;4878991;29;20395;-88
2021/06/15 00:45:58;;;;;;;6.97;3.72;;;;;;;;;;4879456;29;20029;-88
2021/06/15 00:48:43;;;;;;;5.65;4.00;;;;;;;;;;4879072;29;20032;-90
2021/06/15 00:51:09;;;;;;;5.60;3.63;;;;;;;;;;4879064;29;20041;-89
2021/06/15 00:53:36;;;;;;;5.15;3.63;;;;;;;;;;4880319;29;20037;-89
2021/06/15 00:56:03;;;;;;;7.90;4.05;;;;;;;;;;4896602;29;20028;-88
2021/06/15 00:58:29;;;;;;;5.90;3.90;;;;;;;;;;4896514;29;20088;-88
2021/06/15 01:00:54;;;;;;;4.85;3.65;;;;;;;;;;4898050;29;20111;-88
2021/06/15 01:03:22;;;;;;;7.03;3.97;;;;;;;;;;4896789;29;20032;-89
2021/06/15 01:05:48;;;;;;;9.52;4.28;;;;;;;;;;4897000;29;20031;-89
2021/06/15 01:08:20;;;;;;;9.10;4.55;;;;;;;;;;4899022;29;20032;-88
2021/06/15 07:05:11;;;;;;;9.75;4.18;;;;;;;;;;2049813;23;20054;-88
2021/06/15 07:07:36;;;;;;;7.07;3.88;;;;;;;;;;4959963;28;20066;-89
2021/06/15 07:10:02;;;;;;;9.68;4.63;;;;;;;;;;4959993;28;20069;-88
2021/06/15 07:12:28;;;;;;;7.82;4.20;;;;;;;;;;4959701;28;20035;-88
2021/06/15 07:14:53;;;;;;;8.30;4.65;;;;;;;;;;4959388;28;20460;-89
2021/06/15 07:17:19;;;;;;;8.63;4.05;;;;;;;;;;4959527;28;20026;-89
2021/06/15 07:19:44;;;;;;;6.15;4.07;;;;;;;;;;4959593;28;20030;-89
2021/06/15 07:22:10;;;;;;;7.50;3.97;;;;;;;;;;4959290;28;20037;-89
2021/06/15 07:24:35;;;;;;;5.28;3.97;;;;;;;;;;4959104;28;20404;-89
2021/06/15 07:27:01;;;;;;;8.25;4.78;;;;;;;;;;4959097;28;20033;-89
2021/06/15 07:29:27;;;;;;;7.38;4.10;;;;;;;;;;4959009;28;20598;-89
2021/06/15 07:31:54;;;;;;;12.38;4.38;;;;;;;;;;4976185;28;20058;-90
2021/06/15 07:34:21;;;;;;;9.45;4.32;;;;;;;;;;4958403;28;20023;-90
2021/06/15 07:36:46;;;;;;;9.85;4.47;;;;;;;;;;4975834;28;20041;-90
2021/06/15 07:39:12;;;;;;;8.30;4.07;;;;;;;;;;4958526;28;20026;-90
2021/06/15 07:41:38;;;;;;;9.90;4.53;;;;;;;;;;4957757;28;20027;-90
2021/06/15 07:44:05;;;;;;;9.45;4.35;;;;;;;;;;4944681;29;20497;-91
2021/06/15 07:46:31;;;;;;;6.28;3.78;;;;;;;;;;4939183;29;20416;-90
2021/06/15 07:48:56;;;;;;;11.15;4.47;;;;;;;;;;4938969;29;20027;-90
2021/06/15 07:51:22;;;;;;;11.10;4.00;;;;;;;;;;4938966;29;20041;-91
2021/06/15 07:53:48;;;;;;;10.27;3.78;;;;;;;;;;4954451;28;20523;-91
2021/06/15 07:56:13;;;;;;;10.48;4.97;;;;;;;;;;4958194;28;20396;-89
2021/06/15 07:58:39;;;;;;;9.70;4.30;;;;;;;;;;4957976;28;20037;-90
2021/06/15 08:01:05;;;;;;;7.18;4.60;;;;;;;;;;4958204;28;20137;-90
2021/06/15 08:03:30;;;;;;;8.82;4.65;;;;;;;;;;4957931;28;20108;-91
2021/06/15 08:05:56;;;;;;;9.57;4.63;;;;;;;;;;4959532;28;20047;-90
2021/06/15 08:08:21;;;;;;;6.88;4.68;;;;;;;;;;4938257;29;20122;-91
2021/06/15 08:10:47;;;;;;;10.20;4.18;;;;;;;;;;4937143;29;20035;-91
2021/06/15 08:13:12;;;;;;;9.38;4.30;;;;;;;;;;4955671;29;20393;-91
2021/06/15 08:15:38;;;;;;;7.25;4.70;;;;;;;;;;4938355;29;20029;-92
2021/06/15 08:18:04;;;;;;;11.55;4.72;;;;;;;;;;4955639;29;20051;-91
2021/06/15 08:20:29;;;;;;;5.57;4.50;;;;;;;;;;4938085;29;20058;-92
2021/06/15 08:22:55;;;;;;;7.60;4.47;;;;;;;;;;4938401;29;20034;-91
2021/06/15 08:25:20;;;;;;;6.55;4.80;;;;;;;;;;4938306;29;20027;-91
2021/06/15 08:27:46;;;;;;;11.60;5.05;;;;;;;;;;4937474;29;20027;-93
2021/06/15 08:30:12;;;;;;;8.52;4.63;;;;;;;;;;4960497;28;20055;-91
2021/06/15 08:32:38;;;;;;;8.82;4.97;;;;;;;;;;4945313;28;20135;-90
2021/06/15 08:35:04;;;;;;;9.43;4.68;;;;;;;;;;4956610;28;20476;-90
2021/06/15 08:37:34;;;;;;;13.57;5.00;;;;;;;;;;4957267;28;20026;-91
2021/06/15 08:39:59;;;;;;;10.95;4.90;;;;;;;;;;4957143;28;20026;-91
2021/06/15 08:42:25;;;;;;;8.45;4.38;;;;;;;;;;4974515;28;20110;-92
2021/06/15 08:44:50;;;;;;;6.55;4.82;;;;;;;;;;4950754;29;20054;-90
2021/06/15 08:47:16;;;;;;;6.97;4.05;;;;;;;;;;4937976;29;20515;-90
2021/06/15 08:49:43;;;;;;;8.32;5.05;;;;;;;;;;4937195;29;20027;-91
2021/06/15 08:52:09;;;;;;;6.75;4.55;;;;;;;;;;4937866;29;20050;-91
2021/06/15 08:54:38;;;;;;;7.90;4.57;;;;;;;;;;4937147;29;20473;-91
2021/06/15 08:57:05;;;;;;;7.88;4.50;;;;;;;;;;4937394;29;20413;-90
2021/06/15 08:59:31;;;;;;;9.77;4.68;;;;;;;;;;4954853;29;20039;-90
2021/06/15 09:02:02;;;;;;;9.60;4.38;;;;;;;;;;4936847;29;20401;-91
2021/06/15 09:04:27;;;;;;;8.98;4.82;;;;;;;;;;4936872;29;20031;-92
2021/06/15 09:06:57;;;;;;;7.30;5.10;;;;;;;;;;4936355;29;20046;-92
2021/06/15 09:09:36;;;;;;;8.53;4.70;;;;;;;;;;4962714;28;20031;-92
2021/06/15 09:12:02;;;;;;;8.07;4.20;;;;;;;;;;4967608;28;20027;-90
2021/06/15 09:14:51;;;;;;;6.95;4.55;;;;;;;;;;4956349;28;20085;-90
2021/06/15 09:17:26;;;;;;;5.40;4.20;;;;;;;;;;4971811;28;20031;-91
2021/06/15 09:19:54;;;;;;;8.05;4.40;;;;;;;;;;4937001;29;20031;-91
2021/06/15 09:22:33;;;;;;;6.20;4.65;;;;;;;;;;4937226;29;20203;-92
2021/06/15 09:25:00;;;;;;;6.28;4.53;;;;;;;;;;4936834;29;20035;-91
2021/06/15 09:27:31;;;;;;;7.18;4.18;;;;;;;;;;4936865;29;20039;-91
2021/06/15 09:29:58;;;;;;;9.55;4.65;;;;;;;;;;4937070;29;20034;-91
2021/06/15 09:32:25;;;;;;;8.50;4.40;;;;;;;;;;4936671;29;20042;-92
2021/06/15 09:34:56;;;;;;;6.88;4.22;;;;;;;;;;4953220;28;20501;-91
2021/06/15 09:37:37;;;;;;;8.50;5.07;;;;;;;;;;4936826;29;20466;-90
2021/06/15 09:40:10;;;;;;;7.78;4.70;;;;;;;;;;4936823;29;20520;-91
2021/06/15 09:42:56;;;;;;;7.85;3.88;;;;;;;;;;4936925;29;20038;-90
2021/06/15 09:45:23;;;;;;;6.20;4.07;;;;;;;;;;4937020;29;20031;-91
2021/06/15 09:47:49;;;;;;;6.35;3.85;;;;;;;;;;4953715;29;20130;-91
2021/06/15 09:50:16;;;;;;;7.07;3.97;;;;;;;;;;4953121;28;20035;-91
2021/06/15 09:52:42;;;;;;;6.15;3.78;;;;;;;;;;4936609;29;20045;-91
2021/06/15 09:55:09;;;;;;;5.03;3.60;;;;;;;;;;4954000;29;20031;-91
2021/06/15 09:57:45;;;;;;;10.02;4.10;;;;;;;;;;4935735;29;20027;-92
2021/06/15 10:00:21;;;;;;;7.25;3.88;;;;;;;;;;4953689;29;20028;-91
2021/06/15 10:02:49;;;;;;;5.50;3.90;;;;;;;;;;4936459;29;20041;-91
2021/06/15 10:05:21;;;;;;;7.97;3.83;;;;;;;;;;4937877;29;20059;-91
2021/06/15 10:07:47;;;;;;;7.35;3.47;;;;;;;;;;4957579;28;20035;-91
2021/06/15 10:10:16;;;;;;;4.88;3.47;;;;;;;;;;4957716;29;20105;-91
2021/06/15 10:12:42;;;;;;;5.63;4.18;;;;;;;;;;4957129;28;20031;-91
2021/06/15 10:15:09;;;;;;;8.68;3.55;;;;;;;;;;4957422;29;20397;-91
2021/06/15 10:17:35;;;;;;;5.38;3.50;;;;;;;;;;4939208;29;20528;-91
2021/06/15 10:20:01;;;;;;;5.40;3.83;;;;;;;;;;4939879;29;20405;-91
2021/06/15 10:22:26;;;;;;;4.57;3.72;;;;;;;;;;4940179;29;20024;-91
2021/06/15 10:24:52;;;;;;;6.32;3.50;;;;;;;;;;4957675;29;20034;-91
2021/06/15 10:27:17;;;;;;;10.30;3.55;;;;;;;;;;4957538;29;20123;-93
2021/06/15 10:29:49;;;;;;;6.65;3.55;;;;;;;;;;4939355;29;20039;-92
2021/06/15 10:32:21;;;;;;;5.57;3.55;;;;;;;;;;4957306;29;20469;-91
2021/06/15 10:35:04;;;;;;;3.45;3.03;;;;;;;;;;4940140;29;20038;-92
2021/06/15 10:37:32;;;;;;;5.72;3.30;;;;;;;;;;4957368;29;20027;-92
2021/06/15 10:40:00;;;;;;;6.50;3.40;;;;;;;;;;4957378;29;20039;-91
2021/06/15 10:42:26;;;;;;;3.83;2.83;;;;;;;;;;4939928;29;20023;-92
2021/06/15 10:45:13;;;;;;;6.10;3.17;;;;;;;;;;4939294;29;20130;-91
2021/06/15 10:48:04;;;;;;;7.38;2.97;;;;;;;;;;4939083;29;20031;-92
2021/06/15 10:50:38;;;;;;;4.05;2.58;;;;;;;;;;4957272;29;20236;-91
2021/06/15 10:53:06;;;;;;;4.22;2.45;;;;;;;;;;4963875;28;20035;-92
2021/06/15 10:55:52;;;;;;;5.60;2.90;;;;;;;;;;4951618;28;20081;-91
2021/06/15 10:58:36;;;;;;;6.70;2.83;;;;;;;;;;4944255;28;20066;-93
2021/06/15 11:01:31;;;;;;;3.45;2.80;;;;;;;;;;4956841;28;20035;-91
2021/06/15 11:04:04;;;;;;;7.28;2.80;;;;;;;;;;4937097;28;20066;-90
2021/06/15 11:06:29;;;;;;;4.20;2.55;;;;;;;;;;4947823;29;20506;-92
2021/06/15 11:09:16;;;;;;;6.68;2.20;;;;;;;;;;4943204;28;20046;-92
2021/06/15 11:11:47;;;;;;;3.78;2.28;;;;;;;;;;4956227;28;20370;-91
2021/06/15 11:14:19;;;;;;;3.25;2.40;;;;;;;;;;4941990;29;20035;-92
2021/06/15 11:16:46;;;;;;;6.65;2.38;;;;;;;;;;4963579;28;20548;-92
2021/06/15 11:19:16;;;;;;;2.72;1.80;;;;;;;;;;4974454;28;20061;-91
2021/06/15 11:21:51;;;;;;;4.25;2.30;;;;;;;;;;4960690;28;20400;-92
2021/06/15 11:24:36;;;;;;;4.32;2.20;;;;;;;;;;4954823;28;20053;-91
2021/06/15 11:27:13;;;;;;;3.60;2.55;;;;;;;;;;4945175;28;20054;-90
2021/06/15 11:29:43;;;;;;;3.65;2.00;;;;;;;;;;4924657;29;20572;-91
2021/06/15 11:32:29;;;;;;;5.72;2.83;;;;;;;;;;4953427;28;20039;-91
2021/06/15 11:35:04;;;;;;;7.55;1.98;;;;;;;;;;4952665;28;20074;-92
2021/06/15 11:37:41;;;;;;;2.50;1.92;;;;;;;;;;4945870;28;20474;-91
2021/06/15 11:40:29;;;;;;;5.22;2.78;;;;;;;;;;4946442;28;20038;-91
2021/06/15 11:43:17;;;;;;;10.68;1.95;;;;;;;;;;4937535;28;20025;-91
2021/06/15 11:45:45;;;;;;;12.18;7.80;;;;;;;;;;4956606;29;20028;-91
2021/06/15 11:48:16;;;;;;;18.60;8.80;;;;;;;;;;4939252;29;20035;-91
2021/06/15 11:50:46;;;;;;;4.03;2.28;;;;;;;;;;4943571;28;20034;-91
2021/06/15 11:53:15;;;;;;;6.72;4.80;;;;;;;;;;4957905;28;20035;-91
2021/06/15 11:55:43;;;;;;;8.10;4.75;;;;;;;;;;4975151;28;20039;-91
2021/06/15 11:58:18;;;;;;;4.25;1.92;;;;;;;;;;4955515;28;20089;-90
2021/06/15 12:00:47;;;;;;;6.70;2.30;;;;;;;;;;4954808;28;20027;-91
2021/06/15 12:03:17;;;;;;;3.17;1.80;;;;;;;;;;4974403;28;20030;-91
2021/06/15 12:05:44;;;;;;;4.07;1.97;;;;;;;;;;4928913;28;20441;-92
2021/06/15 12:08:10;;;;;;;2.05;1.67;;;;;;;;;;4938075;29;20505;-91
2021/06/15 12:10:36;;;;;;;4.32;1.90;;;;;;;;;;4965102;28;20039;-91
2021/06/15 12:13:22;;;;;;;2.95;1.83;;;;;;;;;;4939616;28;20028;-91
2021/06/15 12:16:26;;;;;;;4.40;1.70;;;;;;;;;;4938725;29;20027;-91
2021/06/15 12:18:54;;;;;;;4.38;1.70;;;;;;;;;;4941523;28;20085;-91
2021/06/15 12:21:28;;;;;;;1.80;1.55;;;;;;;;;;4946882;29;20031;-91
2021/06/15 12:23:58;;;;;;;4.30;1.60;;;;;;;;;;4939761;28;20460;-91
2021/06/15 12:26:32;;;;;;;4.13;1.52;;;;;;;;;;4952579;28;20037;-90
2021/06/15 12:29:09;;;;;;;5.35;1.70;;;;;;;;;;4938165;28;20045;-91
2021/06/15 12:31:35;;;;;;;3.15;1.60;;;;;;;;;;4943107;28;20027;-91
2021/06/15 12:34:04;;;;;;;7.85;1.88;;;;;;;;;;4962255;28;20027;-91
2021/06/15 12:36:35;;;;;;;3.78;1.77;;;;;;;;;;4944145;28;20059;-90
2021/06/15 12:39:35;;;;;;;4.18;1.70;;;;;;;;;;4938038;29;20045;-90
2021/06/15 12:42:04;;;;;;;2.03;1.80;;;;;;;;;;4941362;29;20047;-90
2021/06/15 12:44:42;;;;;;;3.42;1.55;;;;;;;;;;4937647;28;20057;-90
2021/06/15 12:47:13;;;;;;;4.78;1.90;;;;;;;;;;4938006;29;20035;-90
2021/06/15 12:49:51;;;;;;;2.75;1.50;;;;;;;;;;4918890;29;20027;-91
2021/06/15 12:52:17;;;;;;;4.90;1.73;;;;;;;;;;4935842;29;20456;-90
2021/06/15 12:54:45;;;;;;;2.20;1.67;;;;;;;;;;4937415;29;20126;-90
2021/06/15 12:57:16;;;;;;;2.60;1.55;;;;;;;;;;4954467;28;20043;-91
2021/06/15 12:59:55;;;;;;;6.38;1.77;;;;;;;;;;4967375;28;20035;-90
2021/06/15 13:02:24;;;;;;;2.22;1.50;;;;;;;;;;4955264;29;20042;-92
2021/06/15 13:04:55;;;;;;;3.65;1.60;;;;;;;;;;4936983;28;20031;-91
2021/06/15 13:07:22;;;;;;;3.35;1.80;;;;;;;;;;4936784;28;20035;-90
2021/06/15 13:09:48;;;;;;;4.35;1.80;;;;;;;;;;4955004;28;20514;-91
2021/06/15 13:12:19;;;;;;;2.15;1.60;;;;;;;;;;4938213;29;20065;-89
2021/06/15 13:14:53;;;;;;;3.88;1.80;;;;;;;;;;4953929;28;20042;-89
2021/06/15 13:17:25;;;;;;;2.75;1.77;;;;;;;;;;4955542;28;20031;-91
2021/06/15 13:19:53;;;;;;;6.10;3.15;;;;;;;;;;4943591;28;20031;-91
2021/06/15 13:22:25;;;;;;;4.18;2.17;;;;;;;;;;4940475;28;20026;-91
2021/06/15 13:24:51;;;;;;;5.47;1.50;;;;;;;;;;4951510;28;20031;-91
2021/06/15 13:27:19;;;;;;;1.50;1.40;;;;;;;;;;4939435;28;20038;-90
2021/06/15 13:29:45;;;;;;;3.15;1.70;;;;;;;;;;4944894;28;20030;-91
2021/06/15 13:32:24;;;;;;;2.83;1.83;;;;;;;;;;4963028;28;20093;-91
2021/06/15 13:35:08;;;;;;;2.80;1.80;;;;;;;;;;4943111;29;20031;-90
2021/06/15 13:37:42;;;;;;;5.78;2.10;;;;;;;;;;4968750;28;20031;-88
2021/06/15 13:40:13;;;;;;;2.47;1.73;;;;;;;;;;4939464;28;20081;-90
2021/06/15 13:42:40;;;;;;;2.30;1.20;;;;;;;;;;4960939;28;20022;-91
2021/06/15 13:45:12;;;;;;;2.88;1.50;;;;;;;;;;4948697;29;20658;-92
2021/06/15 13:47:39;;;;;;;3.75;1.77;;;;;;;;;;4954986;28;20023;-91
2021/06/15 13:50:07;;;;;;;4.50;1.65;;;;;;;;;;4954068;28;20031;-89
2021/06/15 13:52:32;;;;;;;1.83;1.65;;;;;;;;;;4954990;28;20035;-90
2021/06/15 13:54:58;;;;;;;5.22;1.60;;;;;;;;;;4949130;28;20489;-90
2021/06/15 13:57:23;;;;;;;2.72;1.65;;;;;;;;;;4939380;29;20067;-92
2021/06/15 13:59:49;;;;;;;2.17;1.58;;;;;;;;;;4947612;28;20059;-91
2021/06/15 14:02:15;;;;;;;3.90;1.63;;;;;;;;;;4937511;29;20038;-90
2021/06/15 14:04:40;;;;;;;7.50;1.88;;;;;;;;;;4958426;28;20111;-91
2021/06/15 14:07:08;;;;;;;3.80;1.50;;;;;;;;;;4935859;28;20031;-90
2021/06/15 14:09:34;;;;;;;5.07;1.80;;;;;;;;;;4953090;28;20029;-89
2021/06/15 14:12:00;;;;;;;2.35;1.60;;;;;;;;;;4945226;28;20041;-91
2021/06/15 14:14:25;;;;;;;4.85;1.77;;;;;;;;;;4937258;28;20027;-89
2021/06/15 14:16:51;;;;;;;3.33;1.60;;;;;;;;;;4955874;28;20503;-91
2021/06/15 14:19:16;;;;;;;3.13;1.50;;;;;;;;;;4943998;28;20086;-91
2021/06/15 14:21:42;;;;;;;4.07;1.83;;;;;;;;;;4955971;28;20039;-91
2021/06/15 14:24:09;;;;;;;7.80;1.58;;;;;;;;;;4958532;28;20027;-90
2021/06/15 14:26:36;;;;;;;2.97;1.40;;;;;;;;;;4950796;29;20023;-91
2021/06/15 14:29:03;;;;;;;3.55;1.50;;;;;;;;;;4959581;28;20583;-89
2021/06/15 14:31:29;;;;;;;3.83;1.60;;;;;;;;;;4944773;28;20106;-90
2021/06/15 14:33:59;;;;;;;5.78;1.55;;;;;;;;;;4935069;29;20473;-91
2021/06/15 14:36:24;;;;;;;1.95;1.42;;;;;;;;;;4941281;28;20093;-88
2021/06/15 14:38:51;;;;;;;3.42;1.67;;;;;;;;;;4939189;28;20039;-90
2021/06/15 14:41:21;;;;;;;3.20;1.65;;;;;;;;;;4953011;28;20023;-90
2021/06/15 14:43:47;;;;;;;3.40;1.70;;;;;;;;;;4952039;28;21114;-88
2021/06/15 14:46:12;;;;;;;3.85;1.25;;;;;;;;;;4956471;28;20035;-89
2021/06/15 14:48:38;;;;;;;3.72;1.45;;;;;;;;;;4962123;28;20019;-90
2021/06/15 14:51:04;;;;;;;1.90;1.50;;;;;;;;;;4951011;28;20034;-89
2021/06/15 14:53:29;;;;;;;4.05;1.67;;;;;;;;;;4957467;28;20110;-88
2021/06/15 14:55:55;;;;;;;2.42;1.45;;;;;;;;;;4940769;29;20441;-90
2021/06/15 14:58:20;;;;;;;1.67;1.40;;;;;;;;;;4957394;29;20523;-89
2021/06/15 15:00:48;;;;;;;4.85;1.80;;;;;;;;;;4938745;29;20401;-88
2021/06/15 15:03:14;;;;;;;5.47;1.52;;;;;;;;;;4953685;28;20023;-89
2021/06/15 15:05:39;;;;;;;3.53;1.50;;;;;;;;;;4955044;28;20058;-89
2021/06/15 15:08:05;;;;;;;3.13;1.60;;;;;;;;;;4955359;28;20034;-90
2021/06/15 15:10:31;;;;;;;2.42;1.70;;;;;;;;;;4938927;29;20409;-91
2021/06/15 15:12:57;;;;;;;3.00;1.40;;;;;;;;;;4937878;29;20035;-90
2021/06/15 15:15:22;;;;;;;3.05;1.52;;;;;;;;;;4937939;28;20371;-89
2021/06/15 15:17:48;;;;;;;1.85;1.50;;;;;;;;;;4955639;28;20035;-90
2021/06/15 15:20:15;;;;;;;3.45;1.30;;;;;;;;;;4938101;29;20070;-91
2021/06/15 15:22:44;;;;;;;3.38;1.50;;;;;;;;;;4965961;28;20046;-90
2021/06/15 15:25:10;;;;;;;2.95;1.42;;;;;;;;;;4956974;28;20037;-88
2021/06/15 15:27:37;;;;;;;4.55;1.50;;;;;;;;;;4946031;28;20035;-88
2021/06/15 15:30:07;;;;;;;2.47;1.45;;;;;;;;;;4961013;28;20786;-89
2021/06/15 15:32:34;;;;;;;3.42;1.65;;;;;;;;;;4936921;29;20035;-91
2021/06/15 15:35:03;;;;;;;5.00;1.30;;;;;;;;;;4961734;28;20108;-89
2021/06/15 15:37:29;;;;;;;4.40;1.45;;;;;;;;;;4967310;28;20488;-91
2021/06/15 15:39:54;;;;;;;2.50;1.50;;;;;;;;;;4938083;29;20133;-92
2021/06/15 15:42:20;;;;;;;5.20;1.48;;;;;;;;;;4955467;28;20098;-90
2021/06/15 15:44:47;;;;;;;2.75;1.30;;;;;;;;;;4938972;28;20035;-90
2021/06/15 15:47:13;;;;;;;2.70;1.60;;;;;;;;;;4940375;28;20042;-89
2021/06/15 15:49:41;;;;;;;3.03;1.30;;;;;;;;;;4961411;28;20506;-89
2021/06/15 15:52:07;;;;;;;4.10;1.35;;;;;;;;;;4945774;28;20037;-88
2021/06/15 15:54:34;;;;;;;1.92;1.40;;;;;;;;;;4947680;28;20023;-89
2021/06/15 15:57:00;;;;;;;3.90;1.38;;;;;;;;;;4950264;28;20518;-88
2021/06/15 15:59:26;;;;;;;3.47;1.52;;;;;;;;;;4955538;28;20090;-89
2021/06/15 16:01:53;;;;;;;5.00;1.60;;;;;;;;;;4964951;28;20500;-89
2021/06/15 16:04:18;;;;;;;6.35;1.67;;;;;;;;;;4939911;28;20488;-90
2021/06/15 16:06:44;;;;;;;1.95;1.27;;;;;;;;;;4961692;28;20130;-89
2021/06/15 16:09:11;;;;;;;6.85;1.50;;;;;;;;;;4949929;28;20027;-91
2021/06/15 16:11:37;;;;;;;5.68;1.20;;;;;;;;;;4957863;28;20055;-87
2021/06/15 16:14:04;;;;;;;2.45;1.35;;;;;;;;;;4954423;28;20073;-89
2021/06/15 16:16:29;;;;;;;4.78;1.33;;;;;;;;;;4954921;28;20378;-88
2021/06/15 16:18:55;;;;;;;2.08;1.10;;;;;;;;;;4955536;29;20082;-88
2021/06/15 16:21:21;;;;;;;3.25;1.15;;;;;;;;;;4954669;28;20031;-89
2021/06/15 16:23:46;;;;;;;1.58;1.23;;;;;;;;;;4965804;28;20507;-89
2021/06/15 16:26:13;;;;;;;3.47;1.13;;;;;;;;;;4955892;28;20022;-89
2021/06/15 16:28:38;;;;;;;1.55;1.08;;;;;;;;;;4955991;28;20030;-91
2021/06/15 16:31:04;;;;;;;2.22;1.00;;;;;;;;;;4944779;29;20031;-90
2021/06/15 16:33:29;;;;;;;7.63;1.30;;;;;;;;;;4939000;28;20027;-90
2021/06/15 16:35:55;;;;;;;5.20;1.30;;;;;;;;;;4946753;29;20038;-90
2021/06/15 16:38:20;;;;;;;3.60;1.27;;;;;;;;;;4937358;29;20126;-90
2021/06/15 16:40:46;;;;;;;3.05;1.60;;;;;;;;;;4955755;28;20098;-90
2021/06/15 16:43:11;;;;;;;2.97;0.93;;;;;;;;;;4946878;28;20174;-91
2021/06/15 16:45:36;;;;;;;3.22;0.77;;;;;;;;;;4938022;28;20031;-91
2021/06/15 16:48:02;;;;;;;3.53;1.10;;;;;;;;;;4954735;28;20436;-89
2021/06/15 16:50:28;;;;;;;1.27;0.70;;;;;;;;;;4942992;28;20497;-89
2021/06/15 16:52:54;;;;;;;1.88;0.80;;;;;;;;;;4944827;29;20070;-89
2021/06/15 16:55:20;;;;;;;12.73;1.88;;;;;;;;;;4937058;29;20022;-91
2021/06/15 16:57:46;;;;;;;3.17;1.13;;;;;;;;;;4967560;28;20026;-89
2021/06/15 17:00:14;;;;;;;1.38;1.17;;;;;;;;;;4954117;28;20437;-93
2021/06/15 17:02:40;;;;;;;3.40;0.98;;;;;;;;;;4956462;28;20033;-89
2021/06/15 17:05:07;;;;;;;1.85;1.40;;;;;;;;;;4955170;28;20125;-90
2021/06/15 17:07:42;;;;;;;4.43;1.40;;;;;;;;;;4953789;28;20031;-88
2021/06/15 17:10:10;;;;;;;2.28;1.40;;;;;;;;;;4953384;28;20027;-88
2021/06/15 17:12:38;;;;;;;3.47;1.23;;;;;;;;;;4959979;28;20031;-88
2021/06/15 17:15:06;;;;;;;2.55;1.13;;;;;;;;;;4954367;28;20058;-87
2021/06/15 17:17:31;;;;;;;4.45;1.60;;;;;;;;;;4964595;28;20059;-89
2021/06/15 17:19:57;;;;;;;4.55;1.50;;;;;;;;;;4949823;28;20065;-88
2021/06/15 17:22:23;;;;;;;4.22;1.60;;;;;;;;;;4960456;28;20038;-90
2021/06/15 17:24:48;;;;;;;2.13;1.30;;;;;;;;;;4943808;28;20520;-90
2021/06/15 17:27:14;;;;;;;1.40;1.20;;;;;;;;;;4958715;28;20031;-91
2021/06/15 17:29:39;;;;;;;38.70;3.42;;;;;;;;;;4939559;29;20031;-93
2021/06/15 17:32:05;;;;;;;14.45;1.65;;;;;;;;;;4936485;29;20509;-93
2021/06/15 17:34:30;;;;;;;5.45;1.20;;;;;;;;;;4936950;29;20170;-92
2021/06/15 17:36:56;;;;;;;5.82;1.40;;;;;;;;;;4937232;29;20094;-92
2021/06/15 17:39:21;;;;;;;2.50;1.23;;;;;;;;;;4953575;28;20045;-92
2021/06/15 17:41:57;;;;;;;3.53;1.15;;;;;;;;;;4964250;28;20062;-91
2021/06/15 17:44:23;;;;;;;3.97;1.10;;;;;;;;;;4939093;29;20394;-92
2021/06/15 17:46:49;;;;;;;6.70;1.50;;;;;;;;;;4937201;29;20047;-93
2021/06/15 17:49:16;;;;;;;4.15;1.58;;;;;;;;;;4952445;28;20050;-91
2021/06/15 17:51:45;;;;;;;3.72;1.50;;;;;;;;;;4946750;28;20039;-92
2021/06/15 17:54:12;;;;;;;6.43;1.40;;;;;;;;;;4953731;28;20031;-90
2021/06/15 17:56:38;;;;;;;2.20;1.08;;;;;;;;;;4939530;28;20412;-90
2021/06/15 17:59:04;;;;;;;4.85;1.40;;;;;;;;;;4949719;28;20433;-91
2021/06/15 18:01:30;;;;;;;1.13;1.02;;;;;;;;;;4958725;28;20047;-92
2021/06/15 18:03:58;;;;;;;9.05;1.55;;;;;;;;;;4951642;28;20137;-92
2021/06/15 18:06:31;;;;;;;1.50;1.30;;;;;;;;;;4947141;29;20164;-91
2021/06/15 18:09:04;;;;;;;16.15;2.70;;;;;;;;;;4963720;28;20492;-91
2021/06/15 18:11:34;;;;;;;5.40;1.42;;;;;;;;;;4936267;29;20027;-90
2021/06/15 18:14:00;;;;;;;;;;;;;;;;;;4952818;28;20023;-92
2021/06/15 18:16:26;;;;;;;;;;;;;;;;;;4936399;28;20303;-92
2021/06/15 18:18:51;;;;;;;;;;;;;;;;;;4944264;29;20458;-89
2021/06/15 18:21:17;;;;;;;;;;;;;;;;;;4964889;28;19949;-91
2021/06/15 18:23:42;;;;;;;;;;;;;;;;;;4955929;28;19918;-92
2021/06/15 18:26:11;;;;;;;;;;;;;;;;;;4940960;28;19937;-91
2021/06/15 18:28:37;;;;;;;;;;;;;;;;;;4940446;28;19965;-90
2021/06/15 18:31:02;;;;;;;;;;;;;;;;;;4946044;28;19914;-90
2021/06/15 18:33:28;;;;;;;;;;;;;;;;;;4947224;28;19918;-91
2021/06/15 18:35:53;;;;;;;;;;;;;;;;;;4953779;28;19914;-92
2021/06/15 18:38:18;;;;;;;;;;;;;;;;;;4949544;28;19914;-92
2021/06/15 18:40:44;;;;;;;;;;;;;;;;;;4954830;28;21248;-92
2021/06/15 18:43:13;;;;;;;;;;;;;;;;;;4957560;28;19918;-93
2021/06/15 18:45:39;;;;;;;;;;;;;;;;;;4946435;28;20008;-92
2021/06/15 18:48:05;;;;;;;;;;;;;;;;;;4940506;29;19910;-91
2021/06/15 18:50:30;;;;;;;;;;;;;;;;;;4947473;29;19929;-92
2021/06/15 18:52:55;;;;;;;;;;;;;;;;;;4948567;28;19918;-92
2021/06/15 18:55:20;;;;;;;;;;;;;;;;;;4944883;28;19930;-92
2021/06/15 18:57:46;;;;;;;;;;;;;;;;;;4954883;28;20423;-92
2021/06/15 19:00:13;;;;;;;;;;;;;;;;;;4956974;28;19922;-92
2021/06/15 19:02:38;;;;;;;;;;;;;;;;;;4939502;29;20265;-92
2021/06/15 19:05:05;;;;;;;;;;;;;;;;;;4939878;28;20030;-92
2021/06/15 19:07:30;;;;;;;;;;;;;;;;;;4957491;28;20327;-92
2021/06/15 19:09:55;;;;;;;;;;;;;;;;;;4942533;28;19910;-93
2021/06/15 19:12:21;;;;;;;;;;;;;;;;;;4939501;29;19914;-92
2021/06/15 19:14:46;;;;;;;;;;;;;;;;;;4940461;29;19911;-92
2021/06/15 19:17:12;;;;;;;;;;;;;;;;;;4958370;28;19917;-92
2021/06/15 19:19:38;;;;;;;;;;;;;;;;;;4957481;28;19922;-93
2021/06/15 19:22:04;;;;;;;;;;;;;;;;;;4940244;29;19910;-93
2021/06/15 19:24:29;;;;;;;;;;;;;;;;;;4939904;29;19966;-94
2021/06/15 19:26:56;;;;;;;;;;;;;;;;;;4961313;28;20307;-91
2021/06/15 19:29:22;;;;;;;;;;;;;;;;;;4943593;29;20273;-90
2021/06/15 19:31:47;;;;;;;;;;;;;;;;;;4940100;29;19910;-90
2021/06/15 19:34:13;;;;;;;;;;;;;;;;;;4949139;28;19914;-93
2021/06/15 19:36:38;;;;;;;;;;;;;;;;;;4953896;28;20009;-91
2021/06/15 19:39:04;;;;;;;;;;;;;;;;;;4939051;29;19914;-91
2021/06/15 19:41:30;;;;;;;;;;;;;;;;;;4942483;28;19928;-93
2021/06/15 19:43:55;;;;;;;;;;;;;;;;;;4958696;28;20381;-93
2021/06/15 19:46:21;;;;;;;;;;;;;;;;;;4943044;29;19921;-94
2021/06/15 19:48:47;;;;;;;;;;;;;;;;;;4941335;29;19997;-92
2021/06/15 19:51:16;;;;;;;;;;;;;;;;;;4953478;28;20299;-92
2021/06/15 19:53:42;;;;;;;;;;;;;;;;;;4943141;29;19956;-93
2021/06/15 19:56:16;;;;;;;;;;;;;;;;;;4955822;28;19914;-93
2021/06/15 19:58:42;;;;;;;;;;;;;;;;;;4939135;28;20353;-92
2021/06/15 20:01:08;;;;;;;;;;;;;;;;;;4964283;28;19915;-94
2021/06/15 20:03:34;;;;;;;;;;;;;;;;;;4942595;28;19910;-88
2021/06/15 20:05:59;;;;;;;;;;;;;;;;;;4962864;28;19918;-88
2021/06/15 20:08:25;;;;;;;;;;;;;;;;;;4946741;29;20383;-88
2021/06/15 20:10:50;;;;;;;;;;;;;;;;;;4957521;28;20426;-88
2021/06/15 20:13:15;;;;;;;;;;;;;;;;;;4954644;28;19949;-90
2021/06/15 20:15:40;;;;;;;;;;;;;;;;;;4962451;28;19918;-90
2021/06/15 20:18:06;;;;;;;;;;;;;;;;;;4938356;29;19960;-90
2021/06/15 20:20:32;;;;;;;;;;;;;;;;;;4938234;28;19944;-89
2021/06/15 20:22:57;;;;;;;;;;;;;;;;;;4937843;29;19915;-89
2021/06/15 20:25:23;;;;;;;;;;;;;;;;;;4938343;28;19921;-90
2021/06/15 20:27:48;;;;;;;;;;;;;;;;;;4938615;29;20045;-91
2021/06/15 20:30:14;;;;;;;;;;;;;;;;;;4955156;29;19920;-90
2021/06/15 20:32:39;;;;;;;;;;;;;;;;;;4936983;29;19923;-90
2021/06/15 20:35:06;;;;;;;;;;;;;;;;;;4941946;29;20329;-89
2021/06/15 20:37:31;;;;;;;;;;;;;;;;;;4940003;29;20005;-90
2021/06/15 20:39:57;;;;;;;;;;;;;;;;;;4937899;29;19989;-90
2021/06/15 20:42:22;;;;;;;;;;;;;;;;;;4964318;28;19914;-90
2021/06/15 20:44:47;;;;;;;;;;;;;;;;;;4954394;28;19961;-89
2021/06/15 20:47:13;;;;;;;;;;;;;;;;;;4942255;28;20283;-89
2021/06/15 20:49:38;;;;;;;;;;;;;;;;;;4942185;28;19929;-89
2021/06/15 20:52:04;;;;;;;;;;;;;;;;;;4955565;29;19917;-91
2021/06/15 20:54:29;;;;;;;;;;;;;;;;;;4939645;28;20401;-90
2021/06/15 20:56:54;;;;;;;;;;;;;;;;;;4950279;29;19910;-90
2021/06/15 20:59:20;;;;;;;;;;;;;;;;;;4937941;29;19921;-93
2021/06/15 21:01:45;;;;;;;;;;;;;;;;;;4953468;29;20000;-93
2021/06/15 21:04:10;;;;;;;;;;;;;;;;;;4934914;29;20373;-92